createdAt,value
2018-12-29T00:00:55.666Z,14.63
2018-12-29T00:06:50.677Z,17.65
2018-12-29T00:12:45.712Z,17.74
2018-12-29T00:18:40.682Z,12.74
2018-12-29T00:24:35.690Z,17
2018-12-29T00:30:30.677Z,26.8
2018-12-29T00:36:25.699Z,35.13
2018-12-29T00:42:20.758Z,22.05
2018-12-29T00:48:15.697Z,22.81
2018-12-29T00:54:10.762Z,19.77
2018-12-29T01:00:05.729Z,24.18
2018-12-29T01:06:00.690Z,15.02
2018-12-29T01:11:55.705Z,13.89
2018-12-29T01:17:50.723Z,16.15
2018-12-29T01:23:45.754Z,16.93
2018-12-29T01:29:40.750Z,20.62
2018-12-29T01:35:35.739Z,20.27
2018-12-29T01:41:30.712Z,19.43
2018-12-29T01:47:25.750Z,20.53
2018-12-29T01:53:20.778Z,18.87
2018-12-29T01:59:15.721Z,20.54
2018-12-29T02:05:10.734Z,30.68
2018-12-29T02:11:05.742Z,30.6
2018-12-29T02:17:00.742Z,31.02
2018-12-29T02:22:55.752Z,32.76
2018-12-29T02:28:50.750Z,33.33
2018-12-29T02:34:45.741Z,33.8
2018-12-29T02:40:40.795Z,31.09
2018-12-29T02:46:35.763Z,31.97
2018-12-29T02:52:30.831Z,32.4
2018-12-29T02:58:25.768Z,29.91
2018-12-29T03:04:20.770Z,30.01
2018-12-29T03:10:15.789Z,29.18
2018-12-29T03:16:10.777Z,29.34
2018-12-29T03:22:05.880Z,28.53
2018-12-29T03:28:00.802Z,29.12
2018-12-29T03:33:55.806Z,29.36
2018-12-29T03:39:50.795Z,28.19
2018-12-29T03:45:49.184Z,28.24
2018-12-29T03:51:40.784Z,28.95
2018-12-29T03:57:35.809Z,27.89
2018-12-29T04:03:30.802Z,25.02
2018-12-29T04:09:25.866Z,25.48
2018-12-29T04:15:20.800Z,23.57
2018-12-29T04:21:15.810Z,23.04
2018-12-29T04:27:10.816Z,22.84
2018-12-29T04:33:05.843Z,22.88
2018-12-29T04:39:00.846Z,19.11
2018-12-29T04:44:55.812Z,17.99
2018-12-29T04:50:50.838Z,14.87
2018-12-29T04:56:45.889Z,12.44
2018-12-29T05:02:40.836Z,10.86
2018-12-29T05:08:35.826Z,9.67
2018-12-29T05:14:30.839Z,8.73
2018-12-29T05:20:25.859Z,8.21
2018-12-29T05:26:20.850Z,8.37
2018-12-29T05:32:15.835Z,7.57
2018-12-29T05:38:10.879Z,8.96
2018-12-29T05:44:05.864Z,8.3
2018-12-29T05:50:00.868Z,9.11
2018-12-29T05:55:55.891Z,13.44
2018-12-29T06:01:50.933Z,9.8
2018-12-29T06:07:45.869Z,9.17
2018-12-29T06:13:40.864Z,9.51
2018-12-29T06:19:35.899Z,8.96
2018-12-29T06:25:30.948Z,9.86
2018-12-29T06:31:25.915Z,8.03
2018-12-29T06:37:20.919Z,8.14
2018-12-29T06:43:15.889Z,8.96
2018-12-29T06:49:10.891Z,9.48
2018-12-29T06:55:05.891Z,9.31
2018-12-29T07:01:00.946Z,10.67
2018-12-29T07:06:55.921Z,12.64
2018-12-29T07:12:50.910Z,20.03
2018-12-29T07:18:45.912Z,12.87
2018-12-29T07:24:40.937Z,21.94
2018-12-29T07:30:35.905Z,26.91
2018-12-29T07:36:30.898Z,28.84
2018-12-29T07:42:25.891Z,31.05
2018-12-29T07:48:20.945Z,26.11
2018-12-29T07:54:15.904Z,27.07
2018-12-29T08:00:10.922Z,28.68
2018-12-29T08:06:05.923Z,28.76
2018-12-29T08:12:00.926Z,30.26
2018-12-29T08:17:55.946Z,27.31
2018-12-29T08:23:50.974Z,30.69
2018-12-29T08:29:45.972Z,30.34
2018-12-29T08:35:40.967Z,29.94
2018-12-29T08:41:35.952Z,29.97
2018-12-29T08:47:30.939Z,30.27
2018-12-29T08:53:25.964Z,29.95
2018-12-29T08:59:20.948Z,30.56
2018-12-29T09:05:15.976Z,30.42
2018-12-29T09:11:10.957Z,29
2018-12-29T09:17:12.007Z,29.11
2018-12-29T09:23:00.947Z,30.06
2018-12-29T09:28:55.958Z,27.78
2018-12-29T09:34:50.959Z,30.6
2018-12-29T09:40:45.987Z,32.55
2018-12-29T09:46:40.976Z,31.14
2018-12-29T09:52:35.987Z,30.78
2018-12-29T09:58:30.985Z,29.65
2018-12-29T10:04:25.975Z,28.84
2018-12-29T10:10:21.035Z,32.74
2018-12-29T10:16:15.978Z,32.26
2018-12-29T10:22:10.991Z,31.8
2018-12-29T10:28:05.992Z,33.99
2018-12-29T10:34:00.998Z,33.31
2018-12-29T10:39:56.011Z,32.87
2018-12-29T10:45:50.992Z,32.24
2018-12-29T10:51:46.017Z,32.29
2018-12-29T10:57:41.013Z,32.26
2018-12-29T11:03:36.041Z,33.4
2018-12-29T11:09:31.023Z,36.84
2018-12-29T11:15:26.069Z,37.43
2018-12-29T11:21:21.053Z,40.08
2018-12-29T11:27:16.116Z,36.93
2018-12-29T11:33:11.051Z,34.12
2018-12-29T11:39:06.049Z,34.36
2018-12-29T11:45:01.051Z,31.44
2018-12-29T11:50:56.041Z,35.61
2018-12-29T11:56:51.039Z,39.92
2018-12-29T12:02:46.043Z,36.18
2018-12-29T12:14:36.046Z,36.62
2018-12-29T12:20:31.095Z,32.25
2018-12-29T12:26:26.051Z,33.71
2018-12-29T12:32:21.092Z,30.71
2018-12-29T12:38:16.079Z,26.14
2018-12-29T12:44:11.754Z,24.67
2018-12-29T12:50:06.084Z,28.64
2018-12-29T12:56:01.074Z,28.13
2018-12-29T13:01:56.076Z,29.6
2018-12-29T13:07:51.145Z,29.79
2018-12-29T13:13:46.082Z,28.99
2018-12-29T13:19:41.082Z,32.16
2018-12-29T13:31:33.174Z,30.04
2018-12-29T13:37:26.117Z,29.23
2018-12-29T13:43:21.105Z,32.61
2018-12-29T13:49:16.131Z,31.6
2018-12-29T13:55:11.109Z,32.56
2018-12-29T14:01:06.096Z,34.61
2018-12-29T14:07:01.143Z,33.79
2018-12-29T14:12:56.106Z,33.21
2018-12-29T14:18:51.107Z,34.96
2018-12-29T14:24:46.130Z,38.29
2018-12-29T14:30:41.126Z,37.22
2018-12-29T14:36:36.120Z,72.33
2018-12-29T14:42:31.145Z,62.19
2018-12-29T14:48:26.140Z,51.83
2018-12-29T14:54:21.123Z,39.95
2018-12-29T15:00:16.146Z,39.37
2018-12-29T15:06:11.179Z,40.36
2018-12-29T15:12:06.133Z,42.76
2018-12-29T15:18:01.129Z,82.33
2018-12-29T15:23:56.157Z,110.27
2018-12-29T15:29:51.141Z,91.9
2018-12-29T15:35:46.159Z,54.7
2018-12-29T15:41:41.142Z,47.97
2018-12-29T15:47:36.160Z,43.69
2018-12-29T15:53:31.146Z,44.9
2018-12-29T15:59:26.175Z,43.07
2018-12-29T16:05:21.174Z,44.07
2018-12-29T16:11:16.208Z,45.13
2018-12-29T16:17:11.191Z,45.35
2018-12-29T16:23:06.251Z,45.94
2018-12-29T16:29:01.201Z,50.67
2018-12-29T16:34:56.236Z,81.6
2018-12-29T16:40:57.741Z,50.04
2018-12-29T16:46:46.178Z,44.25
2018-12-29T16:52:41.202Z,47.14
2018-12-29T16:58:36.181Z,61.82
2018-12-29T17:04:31.229Z,52.26
2018-12-29T17:10:26.222Z,49.58
2018-12-29T17:16:21.198Z,44.78
2018-12-29T17:22:16.210Z,46.2
2018-12-29T17:28:11.199Z,47.78
2018-12-29T17:34:06.229Z,48.7
2018-12-29T17:40:01.202Z,46.03
2018-12-29T17:45:56.217Z,41.16
2018-12-29T17:51:51.227Z,41.67
2018-12-29T17:57:46.217Z,44.68
2018-12-29T18:03:41.270Z,44.34
2018-12-29T18:09:36.234Z,46.26
2018-12-29T18:15:31.252Z,45.56
2018-12-29T18:21:26.249Z,44.19
2018-12-29T18:27:21.258Z,45.5
2018-12-29T18:33:16.242Z,53.77
2018-12-29T18:39:11.257Z,48.81
2018-12-29T18:45:06.276Z,47.01
2018-12-29T18:51:01.287Z,44.79
2018-12-29T18:56:56.258Z,80
2018-12-29T19:02:51.275Z,72.99
2018-12-29T19:08:46.265Z,48.67
2018-12-29T19:14:41.268Z,47.17
2018-12-29T19:20:36.376Z,56.52
2018-12-29T19:26:31.270Z,106.48
2018-12-29T19:32:26.306Z,55.45
2018-12-29T19:38:21.340Z,60.05
2018-12-29T19:44:16.275Z,80.94
2018-12-29T19:50:11.318Z,66.09
2018-12-29T19:56:06.334Z,58.13
2018-12-29T20:02:01.290Z,73.24
2018-12-29T20:07:56.295Z,56.63
2018-12-29T20:13:51.350Z,64.28
2018-12-29T20:19:46.302Z,49.07
2018-12-29T20:25:41.328Z,43.3
2018-12-29T20:31:36.303Z,58.07
2018-12-29T20:37:31.299Z,98.39
2018-12-29T20:43:26.312Z,54.59
2018-12-29T20:49:21.336Z,45.38
2018-12-29T20:55:16.315Z,52.81
2018-12-29T21:01:11.318Z,42.48
2018-12-29T21:07:06.339Z,61.45
2018-12-29T21:13:01.356Z,50.89
2018-12-29T21:18:56.323Z,48.16
2018-12-29T21:24:51.346Z,49.5
2018-12-29T21:30:46.348Z,52.2
2018-12-29T21:36:41.345Z,51.71
2018-12-29T21:42:36.437Z,49.24
2018-12-29T21:48:31.325Z,44.32
2018-12-29T21:54:26.350Z,43.91
2018-12-29T22:00:21.348Z,38.93
2018-12-29T22:06:16.375Z,45.01
2018-12-29T22:12:11.361Z,50.05
2018-12-29T22:18:06.363Z,48.72
2018-12-29T22:24:01.359Z,47.87
2018-12-29T22:29:56.399Z,48.88
2018-12-29T22:35:51.399Z,53.63
2018-12-29T22:41:46.421Z,52.21
2018-12-29T22:47:41.444Z,53.3
2018-12-29T22:53:36.381Z,53.36
2018-12-29T22:59:31.404Z,54.49
2018-12-29T23:05:26.390Z,48.43
2018-12-29T23:11:21.470Z,45.9
2018-12-29T23:17:16.453Z,44.24
2018-12-29T23:23:11.385Z,44.87
2018-12-29T23:29:06.403Z,42.74
2018-12-29T23:35:01.387Z,42.82
2018-12-29T23:40:56.449Z,40.15
2018-12-29T23:46:51.431Z,40.17
2018-12-29T23:52:46.410Z,41.55
2018-12-29T23:58:41.402Z,40.17
